createdAt,value
2022-09-24T00:00:36.282Z,2.33
2022-09-24T00:03:09.743Z,2.28
2022-09-24T00:05:43.041Z,2.58
2022-09-24T00:08:18.614Z,2.40
2022-09-24T00:10:51.464Z,1.98
2022-09-24T00:13:24.380Z,2.25
2022-09-24T00:15:57.452Z,2.42
2022-09-24T00:18:30.745Z,2.50
2022-09-24T00:21:13.270Z,2.10
2022-09-24T00:23:50.859Z,2.20
2022-09-24T00:26:42.185Z,2.20
2022-09-24T00:29:18.703Z,2.25
2022-09-24T00:31:53.262Z,1.90
2022-09-24T00:34:26.293Z,2.30
2022-09-24T00:36:59.175Z,2.42
2022-09-24T00:39:33.346Z,1.80
2022-09-24T00:42:06.387Z,2.55
2022-09-24T00:44:56.012Z,2.03
2022-09-24T00:47:35.833Z,1.77
2022-09-24T00:50:15.881Z,2.15
2022-09-24T00:52:53.153Z,2.20
2022-09-24T00:55:28.643Z,2.40
2022-09-24T00:58:06.218Z,2.03
2022-09-24T01:00:43.378Z,2.40
2022-09-24T01:03:20.282Z,2.00
2022-09-24T01:05:53.689Z,1.83
2022-09-24T01:08:26.656Z,2.25
2022-09-24T01:11:15.701Z,2.00
2022-09-24T01:14:27.135Z,2.45
2022-09-24T01:17:14.688Z,2.45
2022-09-24T01:20:27.967Z,2.28
2022-09-24T01:23:17.188Z,2.40
2022-09-24T01:26:03.185Z,2.80
2022-09-24T01:28:52.612Z,2.90
2022-09-24T01:31:31.733Z,3.08
2022-09-24T01:34:08.405Z,3.80
2022-09-24T01:36:43.680Z,3.00
2022-09-24T01:39:18.130Z,3.03
2022-09-24T01:41:53.867Z,3.25
2022-09-24T01:44:27.471Z,3.10
2022-09-24T01:47:02.090Z,3.03
2022-09-24T01:49:35.225Z,3.30
2022-09-24T01:52:14.614Z,3.55
2022-09-24T01:54:51.997Z,3.70
2022-09-24T01:57:30.301Z,3.15
2022-09-24T02:00:09.820Z,3.08
2022-09-24T02:02:57.864Z,3.10
2022-09-24T02:05:34.618Z,2.90
2022-09-24T02:08:11.089Z,3.08
2022-09-24T02:10:47.961Z,2.80
2022-09-24T02:13:26.467Z,2.78
2022-09-24T02:16:03.664Z,2.92
2022-09-24T02:18:41.768Z,2.53
2022-09-24T02:21:18.045Z,2.80
2022-09-24T02:23:56.449Z,3.10
2022-09-24T02:26:30.566Z,2.80
2022-09-24T02:29:04.156Z,3.00
2022-09-24T02:31:40.380Z,3.00
2022-09-24T02:34:25.940Z,3.28
2022-09-24T02:37:02.592Z,2.88
2022-09-24T02:39:36.388Z,2.50
2022-09-24T02:42:11.190Z,2.60
2022-09-24T02:44:44.102Z,2.85
2022-09-24T02:47:17.051Z,2.72
2022-09-24T02:49:55.467Z,3.38
2022-09-24T02:52:28.554Z,2.88
2022-09-24T02:55:01.532Z,3.17
2022-09-24T02:57:34.513Z,3.33
2022-09-24T03:00:08.794Z,2.88
2022-09-24T03:02:41.892Z,3.08
2022-09-24T03:05:18.174Z,3.30
2022-09-24T03:07:51.882Z,3.25
2022-09-24T03:10:25.136Z,3.10
2022-09-24T03:12:58.257Z,3.05
2022-09-24T03:15:31.629Z,3.22
2022-09-24T03:18:04.632Z,3.05
2022-09-24T03:20:38.935Z,3.55
2022-09-24T03:23:12.588Z,3.22
2022-09-24T03:25:46.794Z,3.42
2022-09-24T03:28:19.988Z,3.38
2022-09-24T03:31:00.974Z,3.42
2022-09-24T03:33:36.217Z,2.88
2022-09-24T03:36:13.097Z,2.90
2022-09-24T03:38:47.917Z,3.08
2022-09-24T03:41:21.149Z,3.17
2022-09-24T03:43:54.246Z,3.35
2022-09-24T03:46:28.895Z,3.42
2022-09-24T03:49:03.831Z,3.17
2022-09-24T03:51:38.418Z,3.20
2022-09-24T03:54:11.805Z,3.17
2022-09-24T03:56:45.760Z,3.50
2022-09-24T03:59:19.060Z,3.42
2022-09-24T04:01:52.243Z,3.40
2022-09-24T04:04:25.975Z,3.35
2022-09-24T04:07:00.647Z,3.53
2022-09-24T04:09:33.721Z,3.17
2022-09-24T04:12:07.056Z,3.20
2022-09-24T04:14:40.550Z,3.53
2022-09-24T04:17:14.639Z,3.22
2022-09-24T04:19:48.146Z,3.10
2022-09-24T04:22:22.810Z,3.40
2022-09-24T04:24:56.349Z,3.25
2022-09-24T04:27:33.058Z,3.03
2022-09-24T04:30:06.682Z,2.85
2022-09-24T04:32:41.525Z,3.10
2022-09-24T04:35:14.886Z,3.45
2022-09-24T04:37:50.024Z,3.30
2022-09-24T04:40:23.043Z,3.20
2022-09-24T04:42:55.990Z,2.85
2022-09-24T04:45:29.048Z,2.92
2022-09-24T04:48:02.445Z,3.20
2022-09-24T04:50:35.879Z,3.08
2022-09-24T04:53:10.216Z,3.05
2022-09-24T04:55:43.747Z,2.90
2022-09-24T04:58:17.383Z,3.13
2022-09-24T05:00:51.375Z,2.85
2022-09-24T05:03:24.541Z,2.80
2022-09-24T05:05:57.444Z,3.38
2022-09-24T05:08:31.725Z,3.17
2022-09-24T05:11:04.529Z,3.53
2022-09-24T05:13:37.875Z,3.58
2022-09-24T05:16:10.889Z,3.05
2022-09-24T05:18:44.164Z,3.20
2022-09-24T05:21:18.290Z,3.47
2022-09-24T05:23:53.466Z,4.07
2022-09-24T05:26:45.313Z,3.53
2022-09-24T05:29:18.458Z,3.70
2022-09-24T05:31:51.443Z,3.83
2022-09-24T05:34:24.682Z,3.60
2022-09-24T05:36:58.253Z,3.28
2022-09-24T05:39:34.142Z,3.50
2022-09-24T05:42:08.706Z,3.88
2022-09-24T05:44:43.023Z,3.78
2022-09-24T05:47:16.391Z,3.90
2022-09-24T05:49:49.771Z,3.42
2022-09-24T05:52:23.254Z,3.95
2022-09-24T05:54:58.065Z,4.07
2022-09-24T05:57:30.996Z,3.92
2022-09-24T06:00:04.712Z,3.95
2022-09-24T06:02:37.855Z,3.20
2022-09-24T06:05:11.999Z,3.70
2022-09-24T06:07:47.081Z,3.92
2022-09-24T06:10:23.078Z,3.50
2022-09-24T06:12:56.726Z,3.50
2022-09-24T06:15:29.832Z,3.85
2022-09-24T06:18:03.195Z,3.92
2022-09-24T06:20:36.609Z,3.47
2022-09-24T06:23:09.720Z,3.65
2022-09-24T06:25:48.528Z,3.45
2022-09-24T06:28:22.526Z,3.55
2022-09-24T06:30:55.616Z,3.92
2022-09-24T06:33:28.759Z,3.45
2022-09-24T06:36:03.154Z,3.58
2022-09-24T06:38:36.571Z,3.20
2022-09-24T06:41:12.849Z,3.38
2022-09-24T06:43:46.071Z,3.17
2022-09-24T06:46:19.126Z,3.58
2022-09-24T06:48:52.159Z,3.25
2022-09-24T06:51:25.283Z,3.28
2022-09-24T06:53:58.254Z,3.50
2022-09-24T06:56:32.712Z,3.17
2022-09-24T06:59:07.089Z,3.83
2022-09-24T07:01:40.393Z,3.33
2022-09-24T07:04:13.718Z,3.42
2022-09-24T07:07:05.324Z,3.65
2022-09-24T07:09:41.555Z,4.03
2022-09-24T07:12:17.887Z,3.70
2022-09-24T07:14:51.198Z,3.65
2022-09-24T07:17:27.847Z,3.67
2022-09-24T07:20:05.614Z,3.28
2022-09-24T07:22:43.211Z,3.50
2022-09-24T07:25:16.853Z,3.25
2022-09-24T07:27:51.659Z,3.33
2022-09-24T07:30:25.423Z,3.25
2022-09-24T07:33:00.035Z,3.03
2022-09-24T07:35:33.791Z,3.20
2022-09-24T07:38:08.628Z,3.28
2022-09-24T07:40:42.755Z,3.33
2022-09-24T07:43:17.855Z,3.03
2022-09-24T07:45:50.942Z,3.03
2022-09-24T07:48:24.830Z,3.50
2022-09-24T07:50:57.883Z,2.70
2022-09-24T07:53:31.566Z,2.67
2022-09-24T07:56:05.200Z,2.75
2022-09-24T07:58:39.641Z,2.65
2022-09-24T08:01:12.984Z,2.83
2022-09-24T08:03:47.319Z,2.63
2022-09-24T08:06:21.852Z,2.45
2022-09-24T08:08:56.224Z,2.65
2022-09-24T08:11:30.194Z,3.05
2022-09-24T08:14:05.034Z,3.00
2022-09-24T08:16:39.695Z,2.95
2022-09-24T08:19:14.326Z,2.90
2022-09-24T08:21:48.667Z,3.30
2022-09-24T08:24:22.096Z,3.10
2022-09-24T08:26:55.362Z,2.78
2022-09-24T08:29:30.104Z,3.00
2022-09-24T08:32:03.310Z,2.90
2022-09-24T08:34:38.614Z,2.80
2022-09-24T08:37:13.956Z,2.50
2022-09-24T08:39:46.971Z,2.55
2022-09-24T08:42:32.934Z,2.50
2022-09-24T08:45:28.991Z,2.45
2022-09-24T08:48:10.841Z,2.50
2022-09-24T08:53:26.925Z,3.10
2022-09-24T08:56:01.692Z,3.85
2022-09-24T08:58:44.460Z,2.90
2022-09-24T09:01:31.923Z,2.85
2022-09-24T09:04:26.698Z,2.88
2022-09-24T09:07:15.966Z,2.58
2022-09-24T09:09:54.832Z,2.65
2022-09-24T09:12:36.202Z,2.60
2022-09-24T09:15:16.012Z,2.90
2022-09-24T09:17:54.219Z,2.25
2022-09-24T09:20:32.446Z,2.58
2022-09-24T09:23:13.946Z,2.50
2022-09-24T09:25:51.364Z,2.25
2022-09-24T09:28:27.006Z,2.13
2022-09-24T09:31:08.509Z,2.13
2022-09-24T09:36:42.850Z,2.00
2022-09-24T09:39:31.863Z,2.22
2022-09-24T09:42:16.420Z,2.00
2022-09-24T09:44:49.848Z,2.13
2022-09-24T09:47:34.089Z,2.20
2022-09-24T09:50:21.184Z,1.88
2022-09-24T09:52:57.334Z,1.70
2022-09-24T09:55:35.911Z,1.83
2022-09-24T09:58:19.836Z,1.90
2022-09-24T10:00:54.317Z,1.67
2022-09-24T10:03:30.320Z,1.90
2022-09-24T10:06:07.730Z,2.30
2022-09-24T10:08:41.248Z,2.28
2022-09-24T10:11:17.823Z,2.05
2022-09-24T10:14:03.166Z,1.88
2022-09-24T10:16:39.682Z,1.83
2022-09-24T10:19:18.458Z,2.08
2022-09-24T10:21:57.212Z,1.83
2022-09-24T10:24:30.921Z,1.88
2022-09-24T10:27:12.921Z,1.95
2022-09-24T10:30:06.254Z,2.30
2022-09-24T10:32:40.766Z,2.30
2022-09-24T10:35:30.015Z,2.25
2022-09-24T10:38:23.049Z,2.50
2022-09-24T10:40:56.143Z,2.13
2022-09-24T10:43:29.519Z,2.40
2022-09-24T10:46:18.299Z,2.63
2022-09-24T10:49:00.635Z,3.03
2022-09-24T10:51:41.018Z,2.72
2022-09-24T10:54:32.650Z,2.83
2022-09-24T10:57:13.354Z,2.38
2022-09-24T10:59:58.046Z,2.13
2022-09-24T11:03:03.170Z,2.60
2022-09-24T11:05:43.176Z,2.53
2022-09-24T11:08:31.104Z,2.20
2022-09-24T11:11:32.415Z,1.98
2022-09-24T11:14:22.515Z,2.15
2022-09-24T11:17:13.432Z,1.88
2022-09-24T11:20:05.875Z,2.00
2022-09-24T11:22:57.548Z,2.40
2022-09-24T11:25:38.441Z,1.90
2022-09-24T11:28:31.217Z,1.90
2022-09-24T11:31:13.827Z,1.60
2022-09-24T11:34:07.366Z,1.88
2022-09-24T11:36:54.057Z,1.77
2022-09-24T11:39:40.481Z,1.60
2022-09-24T11:42:26.053Z,1.60
2022-09-24T11:45:27.300Z,1.63
2022-09-24T11:48:22.462Z,1.35
2022-09-24T11:51:08.682Z,1.63
2022-09-24T11:53:46.221Z,1.50
2022-09-24T11:56:24.802Z,1.52
2022-09-24T11:59:04.180Z,1.75
2022-09-24T12:01:41.158Z,1.30
2022-09-24T12:04:21.704Z,1.60
2022-09-24T12:07:04.516Z,1.60
2022-09-24T12:09:43.707Z,1.38
2022-09-24T12:12:22.955Z,1.08
2022-09-24T12:15:01.741Z,1.50
2022-09-24T12:17:42.550Z,1.45
2022-09-24T12:20:20.556Z,1.53
2022-09-24T12:23:00.226Z,1.67
2022-09-24T12:25:39.350Z,1.65
2022-09-24T12:28:14.977Z,1.58
2022-09-24T12:31:12.301Z,1.60
2022-09-24T12:33:54.378Z,1.60
2022-09-24T12:39:12.092Z,1.27
2022-09-24T12:41:48.609Z,1.30
2022-09-24T12:44:27.044Z,1.10
2022-09-24T12:47:01.739Z,1.05
2022-09-24T12:49:38.500Z,1.20
2022-09-24T12:52:19.299Z,1.15
2022-09-24T12:54:59.681Z,1.20
2022-09-24T12:57:37.116Z,1.30
2022-09-24T13:00:36.133Z,1.25
2022-09-24T13:03:34.122Z,1.30
2022-09-24T13:06:23.183Z,1.15
2022-09-24T13:08:56.255Z,1.60
2022-09-24T13:11:32.185Z,1.50
2022-09-24T13:14:21.739Z,1.58
2022-09-24T13:16:57.855Z,1.67
2022-09-24T13:19:36.972Z,1.80
2022-09-24T13:22:23.934Z,1.15
2022-09-24T13:25:19.954Z,1.30
2022-09-24T13:28:04.336Z,1.83
2022-09-24T13:30:41.579Z,1.77
2022-09-24T13:33:24.094Z,1.80
2022-09-24T13:36:07.447Z,1.67
2022-09-24T13:38:49.649Z,1.70
2022-09-24T13:41:33.533Z,1.40
2022-09-24T13:44:14.903Z,1.50
2022-09-24T13:46:51.394Z,1.48
2022-09-24T13:49:26.232Z,1.20
2022-09-24T13:52:09.368Z,1.60
2022-09-24T13:54:52.209Z,1.50
2022-09-24T13:57:27.218Z,1.17
2022-09-24T14:00:06.762Z,1.40
2022-09-24T14:02:40.514Z,1.25
2022-09-24T14:05:18.684Z,1.20
2022-09-24T14:07:58.967Z,1.38
2022-09-24T14:10:36.030Z,1.25
2022-09-24T14:13:21.807Z,1.65
2022-09-24T14:15:57.325Z,1.38
2022-09-24T14:18:30.951Z,1.20
2022-09-24T14:21:10.370Z,1.30
2022-09-24T14:23:48.409Z,1.02
2022-09-24T14:26:31.350Z,1.20
2022-09-24T14:29:10.167Z,1.50
2022-09-24T14:31:46.191Z,1.30
2022-09-24T14:34:30.373Z,1.33
2022-09-24T14:37:10.615Z,1.20
2022-09-24T14:39:46.312Z,0.98
2022-09-24T14:42:25.233Z,1.58
2022-09-24T14:44:58.227Z,1.50
2022-09-24T14:47:32.999Z,1.40
2022-09-24T14:50:21.258Z,1.50
2022-09-24T14:52:57.785Z,1.42
2022-09-24T14:55:39.548Z,1.05
2022-09-24T14:58:26.985Z,1.38
2022-09-24T15:01:02.030Z,1.58
2022-09-24T15:03:41.179Z,1.60
2022-09-24T15:06:19.936Z,2.00
2022-09-24T15:08:57.430Z,1.50
2022-09-24T15:11:32.827Z,1.50
2022-09-24T15:14:25.155Z,1.40
2022-09-24T15:17:10.606Z,1.55
2022-09-24T15:19:44.159Z,2.70
2022-09-24T15:22:16.960Z,3.08
2022-09-24T15:24:51.089Z,1.83
2022-09-24T15:27:27.208Z,1.48
2022-09-24T15:30:04.757Z,1.33
2022-09-24T15:32:37.950Z,1.42
2022-09-24T15:35:15.082Z,1.70
2022-09-24T15:37:48.693Z,1.40
2022-09-24T15:40:23.564Z,1.23
2022-09-24T15:42:56.587Z,1.33
2022-09-24T15:45:31.014Z,1.13
2022-09-24T15:48:03.914Z,1.10
2022-09-24T15:50:39.821Z,1.30
2022-09-24T15:53:19.873Z,1.08
2022-09-24T15:55:55.142Z,1.25
2022-09-24T15:58:28.504Z,1.50
2022-09-24T16:01:02.882Z,1.13
2022-09-24T16:03:35.666Z,1.17
2022-09-24T16:06:12.192Z,1.10
2022-09-24T16:08:44.994Z,1.20
2022-09-24T16:11:17.786Z,1.10
2022-09-24T16:13:51.330Z,1.05
2022-09-24T16:16:25.540Z,1.10
2022-09-24T16:18:58.670Z,1.98
2022-09-24T16:21:31.445Z,5.68
2022-09-24T16:24:04.380Z,3.00
2022-09-24T16:26:37.450Z,1.52
2022-09-24T16:29:12.118Z,1.20
2022-09-24T16:31:46.917Z,1.30
2022-09-24T16:34:19.807Z,1.38
2022-09-24T16:36:52.563Z,1.10
2022-09-24T16:39:25.520Z,1.55
2022-09-24T16:41:58.360Z,1.23
2022-09-24T16:44:31.254Z,1.25
2022-09-24T16:47:05.580Z,1.17
2022-09-24T16:49:38.581Z,1.30
2022-09-24T16:52:11.429Z,1.10
2022-09-24T16:54:44.346Z,1.20
2022-09-24T16:57:17.208Z,1.23
2022-09-24T16:59:50.022Z,1.00
2022-09-24T17:02:24.452Z,1.13
2022-09-24T17:04:59.533Z,1.40
2022-09-24T17:07:34.548Z,2.17
2022-09-24T17:10:17.040Z,1.98
2022-09-24T17:12:51.415Z,1.88
2022-09-24T17:15:26.312Z,1.65
2022-09-24T17:18:00.480Z,1.30
2022-09-24T17:20:33.391Z,1.15
2022-09-24T17:23:06.522Z,1.65
2022-09-24T17:25:39.679Z,1.17
2022-09-24T17:28:12.455Z,1.60
2022-09-24T17:30:46.178Z,2.08
2022-09-24T17:33:42.199Z,2.17
2022-09-24T17:36:15.994Z,2.22
2022-09-24T17:38:48.992Z,2.30
2022-09-24T17:41:22.583Z,2.85
2022-09-24T17:43:58.726Z,2.90
2022-09-24T17:46:35.558Z,1.92
2022-09-24T17:49:11.289Z,1.80
2022-09-24T17:51:46.552Z,1.83
2022-09-24T17:54:23.276Z,1.65
2022-09-24T17:56:56.463Z,1.73
2022-09-24T17:59:29.612Z,1.90
2022-09-24T18:02:06.986Z,1.73
2022-09-24T18:04:41.514Z,2.28
2022-09-24T18:07:14.618Z,2.70
2022-09-24T18:09:48.146Z,3.25
2022-09-24T18:12:21.078Z,2.70
2022-09-24T18:14:54.373Z,1.80
2022-09-24T18:17:27.365Z,1.83
2022-09-24T18:20:01.561Z,2.05
2022-09-24T18:22:34.373Z,1.48
2022-09-24T18:25:08.285Z,1.85
2022-09-24T18:27:41.658Z,1.60
2022-09-24T18:30:15.681Z,1.40
2022-09-24T18:32:48.747Z,1.63
2022-09-24T18:35:22.982Z,1.30
2022-09-24T18:37:56.081Z,1.65
2022-09-24T18:40:29.408Z,1.75
2022-09-24T18:43:02.828Z,2.05
2022-09-24T18:45:36.160Z,2.70
2022-09-24T18:48:09.445Z,2.17
2022-09-24T18:50:46.280Z,1.90
2022-09-24T18:53:19.139Z,2.50
2022-09-24T18:55:52.362Z,2.65
2022-09-24T18:58:25.388Z,2.83
2022-09-24T19:00:59.957Z,2.65
2022-09-24T19:03:32.848Z,3.05
2022-09-24T19:06:08.527Z,2.83
2022-09-24T19:08:41.846Z,3.70
2022-09-24T19:11:17.539Z,3.17
2022-09-24T19:13:54.066Z,3.40
2022-09-24T19:16:27.386Z,2.78
2022-09-24T19:19:01.905Z,2.40
2022-09-24T19:21:36.697Z,2.42
2022-09-24T19:24:10.609Z,2.28
2022-09-24T19:26:44.842Z,2.13
2022-09-24T19:29:17.746Z,1.90
2022-09-24T19:31:51.900Z,1.90
2022-09-24T19:34:24.755Z,2.50
2022-09-24T19:36:59.065Z,2.20
2022-09-24T19:39:31.965Z,2.15
2022-09-24T19:42:04.966Z,2.00
2022-09-24T19:44:37.875Z,2.00
2022-09-24T19:47:10.996Z,2.20
2022-09-24T19:49:43.940Z,2.38
2022-09-24T19:52:18.129Z,2.35
2022-09-24T19:54:51.193Z,2.35
2022-09-24T19:57:23.996Z,2.35
2022-09-24T19:59:56.963Z,2.10
2022-09-24T20:02:31.174Z,2.42
2022-09-24T20:05:04.142Z,2.13
2022-09-24T20:07:38.496Z,2.38
2022-09-24T20:10:11.758Z,2.33
2022-09-24T20:12:46.697Z,2.35
2022-09-24T20:15:19.615Z,2.10
2022-09-24T20:17:53.670Z,2.20
2022-09-24T20:20:26.897Z,2.33
2022-09-24T20:23:01.809Z,2.15
2022-09-24T20:25:52.553Z,2.40
2022-09-24T20:28:25.497Z,2.15
2022-09-24T20:30:58.562Z,2.20
2022-09-24T20:33:31.445Z,2.17
2022-09-24T20:36:14.514Z,2.05
2022-09-24T20:38:49.548Z,2.13
2022-09-24T20:41:24.372Z,2.00
2022-09-24T20:43:57.178Z,2.28
2022-09-24T20:46:31.361Z,2.00
2022-09-24T20:49:06.406Z,2.10
2022-09-24T20:51:39.270Z,2.33
2022-09-24T20:54:14.785Z,1.83
2022-09-24T20:56:48.312Z,2.17
2022-09-24T20:59:21.246Z,2.05
2022-09-24T21:01:55.298Z,1.98
2022-09-24T21:04:28.236Z,2.08
2022-09-24T21:07:01.093Z,2.28
2022-09-24T21:09:35.379Z,2.28
2022-09-24T21:12:09.684Z,2.45
2022-09-24T21:14:42.456Z,2.30
2022-09-24T21:17:15.432Z,2.22
2022-09-24T21:19:48.629Z,2.35
2022-09-24T21:22:21.697Z,2.50
2022-09-24T21:24:55.927Z,2.53
2022-09-24T21:27:28.749Z,2.67
2022-09-24T21:30:01.534Z,2.55
2022-09-24T21:32:36.178Z,2.35
2022-09-24T21:35:09.726Z,2.50
2022-09-24T21:37:42.666Z,2.47
2022-09-24T21:40:19.327Z,2.50
2022-09-24T21:42:52.440Z,2.50
2022-09-24T21:45:26.637Z,2.40
2022-09-24T21:48:00.379Z,2.42
2022-09-24T21:50:38.167Z,2.20
2022-09-24T21:53:13.062Z,2.00
2022-09-24T21:55:49.163Z,2.42
2022-09-24T21:58:22.317Z,2.10
2022-09-24T22:00:55.228Z,2.20
2022-09-24T22:03:28.274Z,2.03
2022-09-24T22:06:03.632Z,2.20
2022-09-24T22:08:36.509Z,2.22
2022-09-24T22:11:12.675Z,2.42
2022-09-24T22:13:47.963Z,1.98
2022-09-24T22:16:23.223Z,2.10
2022-09-24T22:18:56.726Z,1.80
2022-09-24T22:21:29.546Z,2.00
2022-09-24T22:24:02.889Z,1.88
2022-09-24T22:26:37.286Z,2.05
2022-09-24T22:29:10.286Z,2.20
2022-09-24T22:31:44.869Z,1.90
2022-09-24T22:34:36.030Z,1.77
2022-09-24T22:37:08.894Z,2.03
2022-09-24T22:39:42.003Z,2.00
2022-09-24T22:42:16.182Z,1.90
2022-09-24T22:44:50.055Z,1.88
2022-09-24T22:47:23.071Z,1.83
2022-09-24T22:49:56.151Z,1.60
2022-09-24T22:52:29.849Z,1.75
2022-09-24T22:55:03.343Z,1.58
2022-09-24T22:57:37.994Z,1.70
2022-09-24T23:00:15.356Z,1.63
2022-09-24T23:02:48.707Z,1.58
2022-09-24T23:05:21.539Z,1.45
2022-09-24T23:07:54.430Z,1.42
2022-09-24T23:10:28.165Z,1.40
2022-09-24T23:13:02.581Z,1.55
2022-09-24T23:15:35.677Z,1.40
2022-09-24T23:18:08.513Z,1.52
2022-09-24T23:20:41.335Z,1.17
2022-09-24T23:23:14.106Z,1.15
2022-09-24T23:25:47.538Z,1.35
2022-09-24T23:28:21.751Z,1.20
2022-09-24T23:31:01.924Z,1.30
2022-09-24T23:33:35.860Z,1.00
2022-09-24T23:36:10.910Z,1.13
2022-09-24T23:38:43.957Z,1.20
2022-09-24T23:41:18.533Z,1.15
2022-09-24T23:43:53.287Z,1.10
2022-09-24T23:46:26.747Z,1.10
2022-09-24T23:48:59.596Z,1.00
2022-09-24T23:51:32.533Z,1.08
2022-09-24T23:54:05.887Z,1.10
2022-09-24T23:56:38.822Z,0.82
2022-09-24T23:59:14.123Z,1.10
